createdAt,value
2017-11-15T00:01:24.865Z,1025.82
2017-11-15T00:02:52.243Z,1025.84
2017-11-15T00:04:19.523Z,1025.84
2017-11-15T00:05:46.563Z,1025.81
2017-11-15T00:07:14.124Z,1025.83
2017-11-15T00:08:41.465Z,1025.86
2017-11-15T00:10:08.872Z,1025.89
2017-11-15T00:11:36.302Z,1025.91
2017-11-15T00:13:03.589Z,1025.90
2017-11-15T00:14:30.909Z,1025.92
2017-11-15T00:15:58.258Z,1025.94
2017-11-15T00:17:25.626Z,1025.93
2017-11-15T00:18:53.027Z,1025.94
2017-11-15T00:20:20.393Z,1025.92
2017-11-15T00:21:47.801Z,1025.92
2017-11-15T00:23:15.121Z,1025.91
2017-11-15T00:24:42.401Z,1025.91
2017-11-15T00:26:09.559Z,1025.93
2017-11-15T00:27:36.906Z,1025.92
2017-11-15T00:29:04.073Z,1025.89
2017-11-15T00:30:31.337Z,1025.83
2017-11-15T00:31:58.752Z,1025.82
2017-11-15T00:33:26.208Z,1025.79
2017-11-15T00:34:53.503Z,1025.73
2017-11-15T00:36:20.911Z,1025.74
2017-11-15T00:37:48.337Z,1025.77
2017-11-15T00:39:15.594Z,1025.83
2017-11-15T00:40:43.018Z,1025.85
2017-11-15T00:42:10.080Z,1025.87
2017-11-15T00:43:37.400Z,1025.90
2017-11-15T00:45:04.762Z,1025.91
2017-11-15T00:46:32.250Z,1025.91
2017-11-15T00:47:59.787Z,1025.92
2017-11-15T00:49:27.015Z,1025.91
2017-11-15T00:50:54.376Z,1025.91
2017-11-15T00:52:21.723Z,1025.92
2017-11-15T00:53:48.983Z,1025.94
2017-11-15T00:55:16.221Z,1025.97
2017-11-15T00:56:43.693Z,1025.98
2017-11-15T00:58:10.904Z,1026.00
2017-11-15T00:59:38.317Z,1026.00
2017-11-15T01:01:05.596Z,1026.03
2017-11-15T01:02:32.960Z,1026.05
2017-11-15T01:04:00.310Z,1026.06
2017-11-15T01:05:30.645Z,1026.04
2017-11-15T01:06:54.962Z,1026.03
2017-11-15T01:08:22.099Z,1026.04
2017-11-15T01:09:49.360Z,1026.07
2017-11-15T01:11:16.641Z,1026.08
2017-11-15T01:12:44.034Z,1026.09
2017-11-15T01:14:11.280Z,1026.10
2017-11-15T01:15:38.553Z,1026.07
2017-11-15T01:17:05.959Z,1026.08
2017-11-15T01:18:33.292Z,1026.07
2017-11-15T01:20:00.568Z,1026.04
2017-11-15T01:21:27.942Z,1026.05
2017-11-15T01:22:54.888Z,1026.03
2017-11-15T01:24:22.242Z,1026.04
2017-11-15T01:25:49.544Z,1026.02
2017-11-15T01:27:16.507Z,1026.00
2017-11-15T01:28:43.890Z,1026.06
2017-11-15T01:30:11.175Z,1026.06
2017-11-15T01:31:38.516Z,1026.02
2017-11-15T01:33:05.679Z,1026.03
2017-11-15T01:34:33.049Z,1026.05
2017-11-15T01:35:59.902Z,1026.03
2017-11-15T01:37:27.082Z,1025.99
2017-11-15T01:38:54.394Z,1026.02
2017-11-15T01:40:21.523Z,1026.01
2017-11-15T01:41:48.834Z,1026.02
2017-11-15T01:43:15.997Z,1026.01
2017-11-15T01:44:43.372Z,1026.03
2017-11-15T01:46:10.711Z,1026.06
2017-11-15T01:47:37.669Z,1026.09
2017-11-15T01:49:05.120Z,1026.07
2017-11-15T01:50:32.232Z,1026.07
2017-11-15T01:51:59.590Z,1026.08
2017-11-15T01:53:26.887Z,1026.06
2017-11-15T01:54:54.185Z,1026.10
2017-11-15T01:56:21.385Z,1026.11
2017-11-15T01:57:48.520Z,1026.17
2017-11-15T01:59:15.509Z,1026.20
2017-11-15T02:00:42.699Z,1026.20
2017-11-15T02:02:09.739Z,1026.20
2017-11-15T02:03:37.144Z,1026.26
2017-11-15T02:05:04.452Z,1026.29
2017-11-15T02:06:31.765Z,1026.29
2017-11-15T02:07:58.893Z,1026.28
2017-11-15T02:09:26.226Z,1026.24
2017-11-15T02:10:53.617Z,1026.23
2017-11-15T02:12:20.947Z,1026.19
2017-11-15T02:13:48.112Z,1026.20
2017-11-15T02:15:15.160Z,1026.20
2017-11-15T02:16:42.474Z,1026.20
2017-11-15T02:18:09.840Z,1026.24
2017-11-15T02:19:37.111Z,1026.24
2017-11-15T02:21:05.380Z,1026.26
2017-11-15T02:22:31.709Z,1026.30
2017-11-15T02:23:58.942Z,1026.31
2017-11-15T02:25:26.119Z,1026.31
2017-11-15T02:26:53.358Z,1026.30
2017-11-15T02:28:20.818Z,1026.26
2017-11-15T02:29:48.199Z,1026.27
2017-11-15T02:31:15.520Z,1026.25
2017-11-15T02:32:42.980Z,1026.26
2017-11-15T02:34:10.414Z,1026.26
2017-11-15T02:35:37.644Z,1026.24
2017-11-15T02:37:04.661Z,1026.22
2017-11-15T02:38:32.195Z,1026.21
2017-11-15T02:39:59.521Z,1026.24
2017-11-15T02:41:27.063Z,1026.24
2017-11-15T02:42:54.508Z,1026.22
2017-11-15T02:44:21.794Z,1026.20
2017-11-15T02:45:49.026Z,1026.14
2017-11-15T02:47:16.430Z,1026.12
2017-11-15T02:48:43.600Z,1026.07
2017-11-15T02:50:10.847Z,1026.04
2017-11-15T02:51:37.835Z,1026.05
2017-11-15T02:53:05.216Z,1026.05
2017-11-15T02:54:32.616Z,1026.06
2017-11-15T02:55:59.821Z,1026.05
2017-11-15T02:57:27.007Z,1026.06
2017-11-15T02:58:54.418Z,1026.07
2017-11-15T03:00:21.484Z,1026.08
2017-11-15T03:01:48.807Z,1026.11
2017-11-15T03:03:16.018Z,1026.13
2017-11-15T03:04:43.174Z,1026.13
2017-11-15T03:06:10.484Z,1026.14
2017-11-15T03:07:37.843Z,1026.14
2017-11-15T03:09:05.254Z,1026.12
2017-11-15T03:10:32.589Z,1026.14
2017-11-15T03:11:59.626Z,1026.11
2017-11-15T03:13:26.927Z,1026.09
2017-11-15T03:14:54.168Z,1026.05
2017-11-15T03:16:21.606Z,1026.02
2017-11-15T03:17:48.453Z,1026.05
2017-11-15T03:19:15.698Z,1026.06
2017-11-15T03:20:42.782Z,1026.05
2017-11-15T03:22:09.985Z,1026.05
2017-11-15T03:23:37.401Z,1026.04
2017-11-15T03:25:04.739Z,1026.06
2017-11-15T03:26:31.942Z,1026.07
2017-11-15T03:27:59.184Z,1026.05
2017-11-15T03:29:26.341Z,1026.07
2017-11-15T03:30:53.763Z,1026.10
2017-11-15T03:32:21.069Z,1026.12
2017-11-15T03:33:48.491Z,1026.12
2017-11-15T03:35:15.690Z,1026.14
2017-11-15T03:36:43.220Z,1026.15
2017-11-15T03:38:10.323Z,1026.15
2017-11-15T03:39:37.865Z,1026.14
2017-11-15T03:41:04.790Z,1026.14
2017-11-15T03:42:31.994Z,1026.12
2017-11-15T03:43:59.126Z,1026.08
2017-11-15T03:45:26.256Z,1026.06
2017-11-15T03:46:53.620Z,1026.06
2017-11-15T03:48:20.884Z,1026.04
2017-11-15T03:49:48.087Z,1026.00
2017-11-15T03:51:15.431Z,1025.99
2017-11-15T03:52:42.646Z,1026.04
2017-11-15T03:54:09.797Z,1026.10
2017-11-15T03:55:37.162Z,1026.06
2017-11-15T03:57:04.333Z,1026.07
2017-11-15T03:58:31.526Z,1026.07
2017-11-15T03:59:58.740Z,1026.07
2017-11-15T04:01:26.195Z,1026.08
2017-11-15T04:02:53.613Z,1026.08
2017-11-15T04:04:20.920Z,1026.11
2017-11-15T04:05:48.357Z,1026.11
2017-11-15T04:07:15.595Z,1026.10
2017-11-15T04:08:42.825Z,1026.12
2017-11-15T04:10:10.048Z,1026.14
2017-11-15T04:11:37.311Z,1026.18
2017-11-15T04:13:04.664Z,1026.22
2017-11-15T04:14:31.990Z,1026.26
2017-11-15T04:15:59.408Z,1026.31
2017-11-15T04:17:26.768Z,1026.36
2017-11-15T04:18:54.146Z,1026.38
2017-11-15T04:20:21.451Z,1026.40
2017-11-15T04:21:48.609Z,1026.39
2017-11-15T04:23:15.992Z,1026.38
2017-11-15T04:24:43.261Z,1026.38
2017-11-15T04:26:10.624Z,1026.36
2017-11-15T04:27:38.219Z,1026.36
2017-11-15T04:29:05.434Z,1026.32
2017-11-15T04:30:32.576Z,1026.32
2017-11-15T04:31:59.860Z,1026.28
2017-11-15T04:33:27.047Z,1026.28
2017-11-15T04:34:54.395Z,1026.26
2017-11-15T04:36:21.563Z,1026.22
2017-11-15T04:37:48.799Z,1026.22
2017-11-15T04:39:16.107Z,1026.18
2017-11-15T04:40:43.320Z,1026.16
2017-11-15T04:42:10.623Z,1026.15
2017-11-15T04:43:37.893Z,1026.14
2017-11-15T04:45:05.182Z,1026.11
2017-11-15T04:46:32.563Z,1026.14
2017-11-15T04:47:59.822Z,1026.13
2017-11-15T04:49:27.021Z,1026.17
2017-11-15T04:50:54.340Z,1026.21
2017-11-15T04:52:21.441Z,1026.26
2017-11-15T04:53:48.686Z,1026.29
2017-11-15T04:55:15.950Z,1026.28
2017-11-15T04:56:43.393Z,1026.29
2017-11-15T04:58:10.516Z,1026.32
2017-11-15T04:59:37.681Z,1026.31
2017-11-15T05:01:05.032Z,1026.33
2017-11-15T05:02:32.243Z,1026.35
2017-11-15T05:03:59.518Z,1026.36
2017-11-15T05:05:26.859Z,1026.37
2017-11-15T05:06:54.515Z,1026.37
2017-11-15T05:08:21.878Z,1026.39
2017-11-15T05:09:49.089Z,1026.38
2017-11-15T05:11:16.467Z,1026.40
2017-11-15T05:12:43.597Z,1026.41
2017-11-15T05:14:10.892Z,1026.42
2017-11-15T05:15:38.095Z,1026.43
2017-11-15T05:17:05.603Z,1026.39
2017-11-15T05:18:32.956Z,1026.39
2017-11-15T05:20:00.445Z,1026.39
2017-11-15T05:21:27.610Z,1026.40
2017-11-15T05:22:55.040Z,1026.42
2017-11-15T05:24:22.260Z,1026.40
2017-11-15T05:25:49.674Z,1026.40
2017-11-15T05:27:16.960Z,1026.39
2017-11-15T05:28:44.019Z,1026.37
2017-11-15T05:30:11.228Z,1026.36
2017-11-15T05:31:38.577Z,1026.37
2017-11-15T05:33:05.967Z,1026.38
2017-11-15T05:34:33.262Z,1026.37
2017-11-15T05:36:00.316Z,1026.36
2017-11-15T05:37:27.699Z,1026.33
2017-11-15T05:38:54.735Z,1026.35
2017-11-15T05:40:21.869Z,1026.31
2017-11-15T05:41:49.197Z,1026.28
2017-11-15T05:43:16.621Z,1026.27
2017-11-15T05:44:43.673Z,1026.26
2017-11-15T05:46:10.922Z,1026.27
2017-11-15T05:47:38.080Z,1026.27
2017-11-15T05:49:05.330Z,1026.27
2017-11-15T05:50:32.833Z,1026.22
2017-11-15T05:52:00.198Z,1026.22
2017-11-15T05:53:27.393Z,1026.23
2017-11-15T05:54:54.885Z,1026.23
2017-11-15T05:56:22.100Z,1026.27
2017-11-15T05:57:49.375Z,1026.29
2017-11-15T05:59:16.709Z,1026.29
2017-11-15T06:00:43.996Z,1026.29
2017-11-15T06:02:11.254Z,1026.29
2017-11-15T06:03:38.480Z,1026.28
2017-11-15T06:05:05.714Z,1026.28
2017-11-15T06:06:33.183Z,1026.29
2017-11-15T06:08:00.291Z,1026.31
2017-11-15T06:09:27.382Z,1026.33
2017-11-15T06:10:54.703Z,1026.35
2017-11-15T06:12:22.262Z,1026.39
2017-11-15T06:13:49.521Z,1026.42
2017-11-15T06:15:16.976Z,1026.42
2017-11-15T06:16:44.176Z,1026.42
2017-11-15T06:18:10.892Z,1026.42
2017-11-15T06:19:38.328Z,1026.44
2017-11-15T06:21:05.777Z,1026.43
2017-11-15T06:22:33.050Z,1026.42
2017-11-15T06:24:00.118Z,1026.43
2017-11-15T06:25:27.473Z,1026.43
2017-11-15T06:26:54.676Z,1026.45
2017-11-15T06:28:22.031Z,1026.44
2017-11-15T06:29:49.480Z,1026.47
2017-11-15T06:31:16.602Z,1026.50
2017-11-15T06:32:43.648Z,1026.48
2017-11-15T06:34:10.846Z,1026.50
2017-11-15T06:35:38.236Z,1026.50
2017-11-15T06:37:05.651Z,1026.54
2017-11-15T06:38:32.964Z,1026.55
2017-11-15T06:40:00.428Z,1026.53
2017-11-15T06:41:27.776Z,1026.51
2017-11-15T06:42:54.822Z,1026.53
2017-11-15T06:44:22.076Z,1026.52
2017-11-15T06:45:49.191Z,1026.53
2017-11-15T06:47:16.528Z,1026.54
2017-11-15T06:48:43.705Z,1026.58
2017-11-15T06:50:11.091Z,1026.57
2017-11-15T06:51:38.302Z,1026.58
2017-11-15T06:53:05.537Z,1026.58
2017-11-15T06:54:32.822Z,1026.60
2017-11-15T06:56:00.284Z,1026.57
2017-11-15T06:57:27.715Z,1026.60
2017-11-15T06:58:54.986Z,1026.62
2017-11-15T07:00:22.335Z,1026.68
2017-11-15T07:01:49.680Z,1026.69
2017-11-15T07:03:16.893Z,1026.69
2017-11-15T07:04:44.228Z,1026.74
2017-11-15T07:06:11.365Z,1026.76
2017-11-15T07:07:38.941Z,1026.78
2017-11-15T07:09:06.135Z,1026.79
2017-11-15T07:10:33.462Z,1026.79
2017-11-15T07:12:00.851Z,1026.81
2017-11-15T07:13:28.104Z,1026.84
2017-11-15T07:14:55.532Z,1026.89
2017-11-15T07:16:22.825Z,1026.90
2017-11-15T07:17:50.152Z,1026.93
2017-11-15T07:19:17.361Z,1026.91
2017-11-15T07:20:44.625Z,1026.89
2017-11-15T07:22:11.866Z,1026.90
2017-11-15T07:23:39.217Z,1026.90
2017-11-15T07:25:06.614Z,1026.90
2017-11-15T07:26:33.932Z,1026.91
2017-11-15T07:28:01.309Z,1026.91
2017-11-15T07:29:28.473Z,1026.90
2017-11-15T07:30:55.768Z,1026.91
2017-11-15T07:32:23.028Z,1026.93
2017-11-15T07:33:50.321Z,1026.92
2017-11-15T07:35:17.666Z,1026.92
2017-11-15T07:36:45.046Z,1026.89
2017-11-15T07:38:12.329Z,1026.88
2017-11-15T07:39:39.004Z,1026.84
2017-11-15T07:41:06.193Z,1026.80
2017-11-15T07:42:33.446Z,1026.83
2017-11-15T07:44:00.823Z,1026.87
2017-11-15T07:45:28.084Z,1026.91
2017-11-15T07:46:55.027Z,1026.93
2017-11-15T07:48:22.343Z,1026.98
2017-11-15T07:49:49.603Z,1026.97
2017-11-15T07:51:17.014Z,1026.97
2017-11-15T07:52:44.250Z,1026.97
2017-11-15T07:54:11.220Z,1026.97
2017-11-15T07:55:38.539Z,1027.00
2017-11-15T07:57:05.910Z,1027.01
2017-11-15T07:58:33.369Z,1026.99
2017-11-15T08:00:00.630Z,1026.99
2017-11-15T08:01:27.916Z,1026.98
2017-11-15T08:02:55.124Z,1026.97
2017-11-15T08:04:22.433Z,1026.97
2017-11-15T08:05:49.807Z,1026.96
2017-11-15T08:07:17.210Z,1026.96
2017-11-15T11:10:15.490Z,1027.28
2017-11-15T11:11:42.862Z,1027.27
2017-11-15T11:13:09.832Z,1027.25
2017-11-15T11:14:37.012Z,1027.22
2017-11-15T11:16:04.350Z,1027.23
2017-11-15T11:17:31.759Z,1027.24
2017-11-15T11:18:59.131Z,1027.22
2017-11-15T11:20:26.514Z,1027.25
2017-11-15T11:21:53.866Z,1027.26
2017-11-15T11:23:21.245Z,1027.28
2017-11-15T11:24:48.646Z,1027.28
2017-11-15T11:26:15.898Z,1027.27
2017-11-15T11:27:43.280Z,1027.28
2017-11-15T11:29:10.489Z,1027.25
2017-11-15T11:30:37.754Z,1027.26
2017-11-15T11:32:04.947Z,1027.26
2017-11-15T11:33:32.311Z,1027.29
2017-11-15T11:34:59.916Z,1027.28
2017-11-15T11:36:26.948Z,1027.28
2017-11-15T11:37:54.295Z,1027.26
2017-11-15T11:39:21.745Z,1027.28
2017-11-15T11:40:48.832Z,1027.25
2017-11-15T11:42:16.052Z,1027.28
2017-11-15T11:43:43.573Z,1027.28
2017-11-15T11:45:10.630Z,1027.30
2017-11-15T11:46:38.090Z,1027.30
2017-11-15T11:48:05.324Z,1027.29
2017-11-15T11:49:32.790Z,1027.29
2017-11-15T11:51:00.011Z,1027.32
2017-11-15T11:52:27.465Z,1027.34
2017-11-15T11:53:54.892Z,1027.33
2017-11-15T11:55:22.322Z,1027.32
2017-11-15T11:56:49.686Z,1027.31
2017-11-15T11:58:16.971Z,1027.31
2017-11-15T11:59:44.211Z,1027.31
2017-11-15T12:01:11.202Z,1027.29
2017-11-15T12:02:38.369Z,1027.27
2017-11-15T12:04:05.539Z,1027.29
2017-11-15T12:05:32.997Z,1027.28
2017-11-15T12:07:00.173Z,1027.29
2017-11-15T12:08:27.573Z,1027.29
2017-11-15T12:09:54.901Z,1027.31
2017-11-15T12:11:22.054Z,1027.34
2017-11-15T12:12:49.528Z,1027.34
2017-11-15T12:14:16.923Z,1027.33
2017-11-15T12:15:44.254Z,1027.32
2017-11-15T12:17:11.386Z,1027.34
2017-11-15T12:18:38.610Z,1027.34
2017-11-15T12:20:06.016Z,1027.34
2017-11-15T12:21:33.134Z,1027.34
2017-11-15T12:23:00.585Z,1027.31
2017-11-15T12:24:27.787Z,1027.30
2017-11-15T12:25:54.839Z,1027.32
2017-11-15T12:27:21.969Z,1027.31
2017-11-15T12:28:49.570Z,1027.30
2017-11-15T12:30:16.724Z,1027.31
2017-11-15T12:31:43.786Z,1027.30
2017-11-15T12:33:11.152Z,1027.30
2017-11-15T12:34:38.659Z,1027.33
2017-11-15T12:36:06.088Z,1027.34
2017-11-15T12:37:33.382Z,1027.36
2017-11-15T12:39:00.639Z,1027.36
2017-11-15T12:40:27.909Z,1027.38
2017-11-15T12:41:55.305Z,1027.35
2017-11-15T12:43:22.561Z,1027.38
2017-11-15T12:44:49.919Z,1027.39
2017-11-15T12:46:17.238Z,1027.38
2017-11-15T12:47:44.484Z,1027.38
2017-11-15T12:49:11.796Z,1027.37
2017-11-15T12:50:39.097Z,1027.37
2017-11-15T12:52:06.374Z,1027.39
2017-11-15T12:53:33.825Z,1027.38
2017-11-15T12:55:01.277Z,1027.38
2017-11-15T12:56:28.528Z,1027.40
2017-11-15T12:57:55.968Z,1027.38
2017-11-15T12:59:23.335Z,1027.38
2017-11-15T13:00:50.874Z,1027.38
2017-11-15T13:02:18.061Z,1027.41
2017-11-15T13:03:45.389Z,1027.42
2017-11-15T13:05:12.611Z,1027.46
2017-11-15T13:13:46.496Z,1027.52
2017-11-15T13:15:13.535Z,1027.52
2017-11-15T13:16:40.888Z,1027.54
2017-11-15T13:18:08.353Z,1027.55
2017-11-15T13:19:35.615Z,1027.55
2017-11-15T13:21:02.922Z,1027.54
2017-11-15T13:22:30.157Z,1027.55
2017-11-15T13:23:57.546Z,1027.56
2017-11-15T13:25:24.932Z,1027.57
2017-11-15T13:26:52.073Z,1027.57
2017-11-15T13:28:19.697Z,1027.56
2017-11-15T13:29:46.809Z,1027.58
2017-11-15T13:31:14.201Z,1027.58
2017-11-15T13:32:41.466Z,1027.60
2017-11-15T13:34:08.764Z,1027.59
2017-11-15T13:35:36.369Z,1027.62
2017-11-15T13:37:03.649Z,1027.65
2017-11-15T13:38:30.875Z,1027.63
2017-11-15T13:39:58.153Z,1027.63
2017-11-15T13:41:25.567Z,1027.61
2017-11-15T13:42:52.610Z,1027.58
2017-11-15T13:44:19.991Z,1027.58
2017-11-15T13:45:47.480Z,1027.58
2017-11-15T13:47:14.805Z,1027.59
2017-11-15T13:48:42.016Z,1027.61
2017-11-15T13:50:09.350Z,1027.60
2017-11-15T13:51:36.876Z,1027.60
2017-11-15T13:53:04.144Z,1027.63
2017-11-15T13:54:31.590Z,1027.63
2017-11-15T13:55:58.955Z,1027.62
2017-11-15T13:57:26.482Z,1027.66
2017-11-15T13:58:53.801Z,1027.65
2017-11-15T14:00:21.296Z,1027.64
2017-11-15T14:01:48.506Z,1027.60
2017-11-15T14:03:15.893Z,1027.55
2017-11-15T14:04:43.338Z,1027.55
2017-11-15T14:06:10.572Z,1027.56
2017-11-15T14:07:38.004Z,1027.57
2017-11-15T14:09:05.393Z,1027.59
2017-11-15T14:10:32.926Z,1027.60
2017-11-15T14:12:00.281Z,1027.60
2017-11-15T14:13:27.423Z,1027.59
2017-11-15T14:14:54.816Z,1027.59
2017-11-15T14:16:21.816Z,1027.58
2017-11-15T14:17:49.075Z,1027.59
2017-11-15T14:19:16.653Z,1027.59
2017-11-15T14:20:44.024Z,1027.59
2017-11-15T14:22:11.400Z,1027.61
2017-11-15T14:23:38.660Z,1027.61
2017-11-15T14:25:05.960Z,1027.60
2017-11-15T14:26:33.073Z,1027.61
2017-11-15T14:28:00.451Z,1027.60
2017-11-15T14:29:27.779Z,1027.62
2017-11-15T14:30:55.022Z,1027.61
2017-11-15T14:32:22.177Z,1027.61
2017-11-15T14:33:49.566Z,1027.60
2017-11-15T14:35:16.972Z,1027.61
2017-11-15T14:36:44.560Z,1027.63
2017-11-15T14:38:11.987Z,1027.62
2017-11-15T14:39:39.248Z,1027.61
2017-11-15T14:41:06.304Z,1027.61
2017-11-15T14:42:33.642Z,1027.64
2017-11-15T14:44:00.860Z,1027.62
2017-11-15T14:45:28.275Z,1027.65
2017-11-15T14:46:55.449Z,1027.63
2017-11-15T14:48:22.709Z,1027.65
2017-11-15T14:49:49.939Z,1027.67
2017-11-15T14:51:17.314Z,1027.68
2017-11-15T14:52:44.848Z,1027.69
2017-11-15T14:54:12.136Z,1027.70
2017-11-15T14:55:39.594Z,1027.70
2017-11-15T14:57:06.907Z,1027.73
2017-11-15T14:58:34.185Z,1027.76
2017-11-15T15:00:01.379Z,1027.75
2017-11-15T15:01:28.730Z,1027.79
2017-11-15T15:02:56.049Z,1027.83
2017-11-15T15:04:23.268Z,1027.84
2017-11-15T15:05:50.430Z,1027.81
2017-11-15T15:07:17.894Z,1027.82
2017-11-15T15:08:45.169Z,1027.83
2017-11-15T15:10:12.650Z,1027.82
2017-11-15T15:11:39.850Z,1027.85
2017-11-15T15:13:07.121Z,1027.85
2017-11-15T15:14:34.574Z,1027.86
2017-11-15T15:16:01.912Z,1027.86
2017-11-15T15:17:29.317Z,1027.86
2017-11-15T15:18:56.644Z,1027.89
2017-11-15T15:20:23.897Z,1027.89
2017-11-15T15:21:51.422Z,1027.89
2017-11-15T15:23:18.465Z,1027.87
2017-11-15T15:24:45.896Z,1027.89
2017-11-15T15:26:13.295Z,1027.86
2017-11-15T15:27:40.563Z,1027.86
2017-11-15T15:29:07.944Z,1027.85
2017-11-15T15:30:35.287Z,1027.84
2017-11-15T15:32:02.736Z,1027.84
2017-11-15T15:33:30.174Z,1027.83
2017-11-15T15:34:57.392Z,1027.85
2017-11-15T15:36:24.593Z,1027.85
2017-11-15T15:37:52.130Z,1027.84
2017-11-15T15:39:19.257Z,1027.84
2017-11-15T15:40:46.472Z,1027.85
2017-11-15T15:42:13.771Z,1027.89
2017-11-15T15:43:41.266Z,1027.90
2017-11-15T15:45:08.756Z,1027.91
2017-11-15T15:46:35.903Z,1027.91
2017-11-15T15:48:03.130Z,1027.93
2017-11-15T15:49:30.490Z,1027.91
2017-11-15T15:50:57.943Z,1027.92
2017-11-15T15:52:25.029Z,1027.92
2017-11-15T15:53:51.981Z,1027.93
2017-11-15T15:55:19.255Z,1027.92
2017-11-15T15:56:46.721Z,1027.93
2017-11-15T15:58:14.027Z,1027.96
2017-11-15T15:59:41.470Z,1027.97
2017-11-15T16:01:08.844Z,1027.98
2017-11-15T16:02:36.226Z,1027.98
2017-11-15T16:04:03.429Z,1027.95
2017-11-15T16:05:30.758Z,1027.93
2017-11-15T16:06:58.030Z,1027.95
2017-11-15T16:08:25.315Z,1027.96
2017-11-15T16:09:52.641Z,1027.94
2017-11-15T16:11:20.011Z,1027.94
2017-11-15T16:12:47.409Z,1027.94
2017-11-15T16:14:14.766Z,1027.95
2017-11-15T16:15:42.107Z,1027.97
2017-11-15T16:17:09.339Z,1028.00
2017-11-15T16:18:36.799Z,1028.01
2017-11-15T16:20:04.283Z,1028.00
2017-11-15T16:21:31.616Z,1028.00
2017-11-15T16:22:58.924Z,1028.01
2017-11-15T16:24:26.337Z,1028.00
2017-11-15T16:25:53.629Z,1027.97
2017-11-15T16:27:21.013Z,1027.95
2017-11-15T16:28:48.164Z,1027.99
2017-11-15T16:30:15.620Z,1028.02
2017-11-15T16:31:42.847Z,1028.05
2017-11-15T16:33:10.208Z,1028.02
2017-11-15T16:34:37.676Z,1028.06
2017-11-15T16:36:04.902Z,1028.04
2017-11-15T16:37:32.295Z,1028.02
2017-11-15T16:38:59.599Z,1028.02
2017-11-15T16:40:26.873Z,1028.02
2017-11-15T16:41:54.190Z,1028.02
2017-11-15T16:43:21.630Z,1028.03
2017-11-15T16:44:49.004Z,1028.05
2017-11-15T16:46:16.581Z,1028.08
2017-11-15T16:47:43.875Z,1028.05
2017-11-15T16:49:11.252Z,1028.02
2017-11-15T16:50:38.689Z,1028.01
2017-11-15T16:52:05.868Z,1028.00
2017-11-15T16:53:33.235Z,1027.97
2017-11-15T16:55:00.486Z,1027.98
2017-11-15T16:56:27.787Z,1027.97
2017-11-15T16:57:55.136Z,1027.97
2017-11-15T16:59:22.328Z,1027.97
2017-11-15T17:00:49.516Z,1027.99
2017-11-15T17:02:16.874Z,1028.00
2017-11-15T17:03:44.164Z,1028.01
2017-11-15T17:05:11.724Z,1028.02
2017-11-15T17:06:38.927Z,1028.01
2017-11-15T17:08:06.383Z,1028.00
2017-11-15T17:09:33.526Z,1028.00
2017-11-15T17:11:00.778Z,1027.99
2017-11-15T17:12:28.069Z,1028.01
2017-11-15T17:13:55.467Z,1028.01
2017-11-15T17:15:22.532Z,1028.02
2017-11-15T17:16:50.001Z,1028.00
2017-11-15T17:18:17.288Z,1027.99
2017-11-15T17:19:44.594Z,1027.98
2017-11-15T17:21:12.018Z,1027.98
2017-11-15T17:22:39.417Z,1027.98
2017-11-15T17:24:06.651Z,1027.99
2017-11-15T17:25:33.864Z,1028.03
2017-11-15T17:27:01.078Z,1028.06
2017-11-15T17:28:28.351Z,1028.06
2017-11-15T17:29:55.643Z,1028.08
2017-11-15T17:31:22.750Z,1028.08
2017-11-15T17:32:50.111Z,1028.06
2017-11-15T17:34:17.461Z,1028.04
2017-11-15T17:35:44.761Z,1028.04
2017-11-15T17:37:12.120Z,1028.07
2017-11-15T17:38:39.617Z,1028.06
2017-11-15T17:40:07.134Z,1028.09
2017-11-15T17:41:34.363Z,1028.07
2017-11-15T17:43:01.801Z,1028.08
2017-11-15T17:44:29.137Z,1028.11
2017-11-15T17:45:56.498Z,1028.15
2017-11-15T17:47:23.784Z,1028.18
2017-11-15T17:48:51.022Z,1028.21
2017-11-15T17:50:18.330Z,1028.23
2017-11-15T17:51:45.759Z,1028.23
2017-11-15T17:53:13.004Z,1028.23
2017-11-15T17:54:40.447Z,1028.22
2017-11-15T17:56:07.750Z,1028.24
2017-11-15T17:57:35.122Z,1028.28
2017-11-15T17:59:02.508Z,1028.31
2017-11-15T18:00:29.830Z,1028.32
2017-11-15T18:01:57.258Z,1028.36
2017-11-15T18:03:24.579Z,1028.37
2017-11-15T18:04:51.704Z,1028.38
2017-11-15T18:06:19.254Z,1028.39
2017-11-15T18:07:46.403Z,1028.41
2017-11-15T18:09:13.786Z,1028.44
2017-11-15T18:10:41.123Z,1028.47
2017-11-15T18:12:08.567Z,1028.47
2017-11-15T18:13:35.866Z,1028.49
2017-11-15T18:15:03.256Z,1028.51
2017-11-15T18:16:30.617Z,1028.50
2017-11-15T18:17:58.073Z,1028.50
2017-11-15T18:19:25.428Z,1028.48
2017-11-15T18:20:52.583Z,1028.45
2017-11-15T18:22:19.981Z,1028.46
2017-11-15T18:23:47.278Z,1028.46
2017-11-15T18:25:14.637Z,1028.49
2017-11-15T18:26:42.110Z,1028.52
2017-11-15T18:28:09.485Z,1028.55
2017-11-15T18:29:36.763Z,1028.57
2017-11-15T18:31:04.360Z,1028.55
2017-11-15T18:32:31.407Z,1028.55
2017-11-15T18:33:58.691Z,1028.57
2017-11-15T18:35:25.991Z,1028.58
2017-11-15T18:36:53.398Z,1028.59
2017-11-15T18:38:20.834Z,1028.60
2017-11-15T18:39:48.135Z,1028.62
2017-11-15T18:41:15.711Z,1028.63
2017-11-15T18:42:42.882Z,1028.66
2017-11-15T18:44:10.109Z,1028.67
2017-11-15T18:45:37.525Z,1028.64
2017-11-15T18:47:04.691Z,1028.63
2017-11-15T18:48:32.001Z,1028.62
2017-11-15T18:49:59.351Z,1028.63
2017-11-15T18:51:26.711Z,1028.64
2017-11-15T18:52:53.931Z,1028.62
2017-11-15T18:54:21.390Z,1028.62
2017-11-15T18:55:48.733Z,1028.60
2017-11-15T18:57:16.162Z,1028.62
2017-11-15T18:58:43.640Z,1028.61
2017-11-15T19:00:11.177Z,1028.56
2017-11-15T19:01:38.725Z,1028.55
2017-11-15T19:03:05.749Z,1028.56
2017-11-15T19:04:33.317Z,1028.58
2017-11-15T19:06:00.476Z,1028.60
2017-11-15T19:07:27.844Z,1028.65
2017-11-15T19:08:55.031Z,1028.71
2017-11-15T19:10:22.273Z,1028.72
2017-11-15T19:11:49.659Z,1028.75
2017-11-15T19:13:17.159Z,1028.77
2017-11-15T19:14:44.482Z,1028.76
2017-11-15T19:16:11.932Z,1028.75
2017-11-15T19:17:39.162Z,1028.74
2017-11-15T19:19:06.584Z,1028.75
2017-11-15T19:20:34.026Z,1028.76
2017-11-15T19:22:01.348Z,1028.80
2017-11-15T19:23:28.589Z,1028.82
2017-11-15T19:24:55.844Z,1028.87
2017-11-15T19:26:23.100Z,1028.91
2017-11-15T19:27:50.412Z,1028.94
2017-11-15T19:29:17.623Z,1028.97
2017-11-15T19:30:45.241Z,1028.98
2017-11-15T19:32:12.387Z,1028.98
2017-11-15T19:33:39.790Z,1028.97
2017-11-15T19:35:07.189Z,1028.96
2017-11-15T19:36:34.518Z,1028.96
2017-11-15T19:38:02.000Z,1028.93
2017-11-15T19:39:29.194Z,1028.92
2017-11-15T19:40:56.326Z,1028.91
2017-11-15T19:42:23.589Z,1028.90
2017-11-15T19:43:50.932Z,1028.93
2017-11-15T19:45:18.356Z,1028.93
2017-11-15T19:46:45.707Z,1028.97
2017-11-15T19:48:13.084Z,1028.97
2017-11-15T19:49:40.565Z,1028.98
2017-11-15T19:51:07.873Z,1028.97
2017-11-15T19:52:35.139Z,1028.98
2017-11-15T19:54:02.526Z,1029.04
2017-11-15T19:55:29.690Z,1029.03
2017-11-15T19:56:56.947Z,1029.06
2017-11-15T19:58:24.248Z,1029.06
2017-11-15T19:59:51.667Z,1029.08
2017-11-15T20:01:18.872Z,1029.09
2017-11-15T20:02:46.259Z,1029.10
2017-11-15T20:04:13.622Z,1029.10
2017-11-15T20:05:41.023Z,1029.15
2017-11-15T20:07:08.370Z,1029.13
2017-11-15T20:08:35.589Z,1029.13
2017-11-15T20:10:02.834Z,1029.17
2017-11-15T20:11:30.211Z,1029.17
2017-11-15T20:12:57.543Z,1029.17
2017-11-15T20:14:25.689Z,1029.16
2017-11-15T20:15:52.207Z,1029.17
2017-11-15T20:17:19.569Z,1029.21
2017-11-15T20:18:47.022Z,1029.21
2017-11-15T20:20:14.120Z,1029.25
2017-11-15T20:21:41.480Z,1029.26
2017-11-15T20:23:08.733Z,1029.32
2017-11-15T20:24:35.964Z,1029.35
2017-11-15T20:26:03.301Z,1029.33
2017-11-15T20:27:30.763Z,1029.33
2017-11-15T20:28:57.860Z,1029.32
2017-11-15T20:30:25.204Z,1029.31
2017-11-15T20:31:52.108Z,1029.32
2017-11-15T20:33:19.541Z,1029.29
2017-11-15T20:34:46.867Z,1029.30
2017-11-15T20:36:14.159Z,1029.28
2017-11-15T20:37:41.546Z,1029.28
2017-11-15T20:39:08.867Z,1029.25
2017-11-15T20:40:36.074Z,1029.26
2017-11-15T20:42:03.390Z,1029.26
2017-11-15T20:43:30.770Z,1029.27
2017-11-15T20:44:58.237Z,1029.30